Time;durP1;ratioP1;P1;durP2;ratioP2;P2;SDS_P1;SDS_P2;PMS_P1;PMS_P2;Temp;Humidity;BMP_temperature;BMP_pressure;BME280_temperature;BME280_humidity;BME280_pressure;Samples;Min_cycle;Max_cycle;Signal;HPM_P1;HPM_P2
2022/04/26 03:36:16;;;;;;;32.50;18.83;;;;;;;8.90;67.76;100824.06;700006;28;1086;-81
2022/04/26 03:36:37;;;;;;;31.67;18.80;;;;;;;8.90;67.56;100818.88;692752;28;1610;-81
2022/04/26 03:36:59;;;;;;;32.77;18.60;;;;;;;8.89;67.49;100820.59;687828;28;1154;-80
2022/04/26 03:37:21;;;;;;;34.13;18.92;;;;;;;8.91;67.59;100820.66;689621;28;1179;-81
2022/04/26 03:37:41;;;;;;;35.60;18.67;;;;;;;8.89;67.48;100822.31;696239;28;1746;-81
2022/04/26 03:38:02;;;;;;;34.85;18.77;;;;;;;8.93;67.39;100826.81;693291;28;957;-80
2022/04/26 03:38:23;;;;;;;33.25;18.67;;;;;;;8.99;67.69;100829.63;693081;28;1135;-80
2022/04/26 03:38:47;;;;;;;34.33;18.67;;;;;;;8.95;67.24;100825.13;693078;28;1677;-80
2022/04/26 03:39:08;;;;;;;34.80;18.33;;;;;;;8.90;67.57;100816.25;687604;28;1099;-80
2022/04/26 03:39:36;;;;;;;34.15;17.60;;;;;;;8.93;67.22;100824.19;687610;28;1359;-81
2022/04/26 03:39:56;;;;;;;30.00;17.80;;;;;;;8.91;67.44;100823.28;694098;28;1431;-81
2022/04/26 03:40:16;;;;;;;29.55;17.90;;;;;;;8.96;67.29;100829.50;693117;28;1103;-81
2022/04/26 03:40:37;;;;;;;30.67;19.27;;;;;;;8.94;67.20;100823.38;691001;28;1487;-80
2022/04/26 03:40:58;;;;;;;32.47;19.13;;;;;;;8.90;67.55;100816.25;690442;28;1005;-80
2022/04/26 03:41:18;;;;;;;32.20;18.73;;;;;;;8.94;67.78;100825.97;691298;28;2526;-81
2022/04/26 03:41:39;;;;;;;32.43;18.80;;;;;;;8.88;67.48;100815.34;691363;28;1412;-81
2022/04/26 03:42:02;;;;;;;31.85;18.70;;;;;;;8.99;67.54;100834.84;693849;28;1649;-81
2022/04/26 03:42:22;;;;;;;35.97;18.45;;;;;;;8.93;67.46;100825.91;692968;28;1151;-80
2022/04/26 03:42:43;;;;;;;37.00;18.60;;;;;;;8.93;67.39;100824.19;692888;28;1101;-81
2022/04/26 03:43:03;;;;;;;32.97;18.47;;;;;;;8.93;67.36;100829.41;687585;28;1155;-81
2022/04/26 03:43:25;;;;;;;29.27;18.10;;;;;;;8.92;67.35;100827.66;686724;28;2623;-81
2022/04/26 03:43:45;;;;;;;27.40;18.20;;;;;;;8.91;67.15;100825.88;687563;28;1968;-81
2022/04/26 03:44:06;;;;;;;27.40;18.08;;;;;;;8.92;67.31;100827.66;687101;28;2839;-82
2022/04/26 03:44:26;;;;;;;28.87;18.00;;;;;;;8.87;67.30;100824.88;690174;28;1262;-81
2022/04/26 03:44:47;;;;;;;30.23;18.38;;;;;;;8.86;67.14;100819.59;689934;28;1059;-80
2022/04/26 03:45:08;;;;;;;33.47;18.50;;;;;;;8.87;67.47;100823.97;690162;28;1373;-81
2022/04/26 03:45:29;;;;;;;31.00;18.00;;;;;;;8.86;67.27;100823.06;695806;28;1279;-80
2022/04/26 03:45:50;;;;;;;30.70;17.40;;;;;;;8.88;67.41;100830.94;693069;28;1564;-81
2022/04/26 03:46:10;;;;;;;29.80;17.80;;;;;;;8.87;67.42;100829.19;688154;28;1241;-80
2022/04/26 03:46:31;;;;;;;34.20;18.40;;;;;;;8.89;67.48;100832.72;690402;28;767;-81
2022/04/26 03:46:52;;;;;;;35.63;18.48;;;;;;;8.83;67.49;100817.78;682412;28;1231;-81
2022/04/26 03:47:13;;;;;;;34.45;18.52;;;;;;;8.86;67.43;100833.50;690165;28;1326;-81
2022/04/26 03:47:33;;;;;;;30.85;18.13;;;;;;;8.85;67.21;100831.72;693086;28;732;-81
2022/04/26 03:47:54;;;;;;;29.00;18.13;;;;;;;8.82;67.74;100826.41;693065;28;1046;-83
2022/04/26 03:48:14;;;;;;;29.63;18.00;;;;;;;8.82;67.11;100820.31;688553;28;1325;-83
2022/04/26 03:48:35;;;;;;;29.80;17.77;;;;;;;8.88;67.57;100836.16;692478;28;1468;-83
2022/04/26 03:48:55;;;;;;;28.27;17.10;;;;;;;8.86;67.42;100832.63;693293;28;1157;-83
2022/04/26 03:49:17;;;;;;;29.30;17.70;;;;;;;8.83;67.40;100833.38;693090;28;1106;-83
2022/04/26 03:49:37;;;;;;;30.93;18.33;;;;;;;8.82;67.58;100830.72;692442;28;1420;-83
2022/04/26 03:49:58;;;;;;;30.67;18.17;;;;;;;8.83;67.36;100829.91;684996;28;1193;-83
2022/04/26 03:50:18;;;;;;;30.10;17.50;;;;;;;8.83;67.52;100828.19;685405;28;1136;-80
2022/04/26 03:50:39;;;;;;;28.75;17.48;;;;;;;8.83;67.31;100829.91;687667;28;1334;-81
2022/04/26 03:51:18;;;;;;;29.80;18.03;;;;;;;8.87;67.54;100834.38;687775;28;1806;-81
2022/04/26 03:51:40;;;;;;;29.60;17.40;;;;;;;8.86;67.11;100832.63;690013;28;1726;-81
2022/04/26 03:52:01;;;;;;;29.75;17.50;;;;;;;8.83;67.54;100827.31;693259;28;760;-80
2022/04/26 03:52:22;;;;;;;30.70;17.75;;;;;;;8.81;67.18;100822.03;687571;28;1311;-80
2022/04/26 03:52:42;;;;;;;29.98;17.55;;;;;;;8.91;67.31;100841.50;690263;28;1745;-81
2022/04/26 03:53:03;;;;;;;29.80;17.33;;;;;;;8.80;67.30;100820.28;688013;28;1239;-81
2022/04/26 03:53:23;;;;;;;28.60;17.38;;;;;;;8.80;67.69;100824.59;687884;28;1314;-81
2022/04/26 03:53:44;;;;;;;28.53;17.53;;;;;;;8.86;67.50;100827.41;687070;28;1734;-81
2022/04/26 03:54:04;;;;;;;29.30;18.08;;;;;;;8.83;67.18;100829.91;690519;28;1142;-80
2022/04/26 03:54:25;;;;;;;28.83;17.85;;;;;;;8.81;67.24;100824.66;687754;28;1505;-81
2022/04/26 03:54:45;;;;;;;29.50;17.70;;;;;;;8.83;67.17;100829.91;687648;28;964;-80
2022/04/26 03:55:08;;;;;;;28.73;17.20;;;;;;;8.79;67.45;100830.63;687707;28;1141;-81
2022/04/26 03:55:28;;;;;;;28.13;17.40;;;;;;;8.87;67.13;100840.50;694104;28;1368;-80
2022/04/26 03:55:49;;;;;;;28.95;17.35;;;;;;;8.83;67.74;100833.38;687789;28;1236;-81
2022/04/26 03:56:09;;;;;;;29.27;17.13;;;;;;;8.89;67.34;100837.91;689038;28;1039;-80
2022/04/26 03:56:30;;;;;;;28.92;16.85;;;;;;;8.80;67.50;100821.97;690468;28;1355;-81
2022/04/26 03:56:51;;;;;;;25.60;16.40;;;;;;;8.86;67.74;100832.63;685123;28;1082;-81
2022/04/26 03:57:12;;;;;;;24.80;16.45;;;;;;;8.84;67.15;100826.50;691042;28;1249;-80
2022/04/26 03:57:32;;;;;;;26.95;16.50;;;;;;;8.85;67.29;100829.13;690401;28;1086;-81
2022/04/26 03:57:53;;;;;;;27.20;16.40;;;;;;;8.85;67.13;100830.84;695511;28;1277;-81
2022/04/26 03:58:14;;;;;;;27.15;16.60;;;;;;;8.91;67.46;100836.28;693097;28;1469;-81
2022/04/26 03:58:35;;;;;;;27.60;16.57;;;;;;;8.85;67.43;100829.13;690512;28;756;-81
2022/04/26 03:58:55;;;;;;;26.92;16.00;;;;;;;8.83;67.30;100829.91;695863;28;1975;-81
2022/04/26 03:59:17;;;;;;;28.38;15.73;;;;;;;8.83;67.17;100832.53;691142;28;1187;-80
2022/04/26 03:59:37;;;;;;;27.45;15.70;;;;;;;8.83;67.46;100828.19;685440;28;1585;-81
2022/04/26 03:59:58;;;;;;;29.83;17.13;;;;;;;8.80;67.47;100833.28;690506;28;1040;-81
2022/04/26 04:00:19;;;;;;;28.48;17.70;;;;;;;8.85;67.23;100831.72;691974;28;1193;-81
2022/04/26 04:00:39;;;;;;;30.90;18.17;;;;;;;8.82;67.75;100828.13;690430;28;1453;-81
2022/04/26 04:01:00;;;;;;;29.27;17.27;;;;;;;8.87;67.39;100839.59;693096;28;1118;-81
2022/04/26 04:01:22;;;;;;;29.23;16.98;;;;;;;8.76;67.62;100821.88;685318;28;1441;-81
2022/04/26 04:01:43;;;;;;;28.45;16.90;;;;;;;8.86;67.26;100845.63;695436;28;1347;-81
2022/04/26 04:02:04;;;;;;;28.58;17.13;;;;;;;8.90;67.26;100844.91;695497;28;1172;-81
2022/04/26 04:02:24;;;;;;;28.83;17.25;;;;;;;8.85;67.47;100836.94;688028;28;1417;-81
2022/04/26 04:02:45;;;;;;;27.43;16.90;;;;;;;8.84;67.17;100834.28;690275;28;1741;-81
2022/04/26 04:03:08;;;;;;;27.70;16.75;;;;;;;8.81;67.62;100832.47;693230;28;1090;-81
2022/04/26 04:03:29;;;;;;;25.80;16.42;;;;;;;8.84;67.38;100834.28;693154;28;1909;-81
2022/04/26 04:03:49;;;;;;;25.42;16.00;;;;;;;8.87;67.19;100844.81;687745;28;1039;-80
2022/04/26 04:04:10;;;;;;;26.80;15.87;;;;;;;8.81;67.57;100840.25;690283;28;1031;-81
2022/04/26 04:04:31;;;;;;;27.15;16.40;;;;;;;8.81;67.37;100839.38;693121;28;1729;-80
2022/04/26 04:04:51;;;;;;;26.65;16.58;;;;;;;8.88;67.33;100851.78;684949;28;1514;-80
2022/04/26 04:05:12;;;;;;;27.30;16.52;;;;;;;8.81;67.34;100839.38;689333;28;1166;-81
2022/04/26 04:05:33;;;;;;;26.05;15.85;;;;;;;8.85;67.16;100838.66;692302;28;1400;-80
2022/04/26 04:05:54;;;;;;;26.67;15.95;;;;;;;8.79;67.57;100841.94;693681;28;1237;-81
2022/04/26 04:06:15;;;;;;;25.25;16.23;;;;;;;8.79;67.42;100834.13;692696;28;1321;-80
2022/04/26 04:06:35;;;;;;;27.43;16.80;;;;;;;8.82;67.67;100831.63;690401;28;1591;-81
2022/04/26 04:06:56;;;;;;;28.20;16.67;;;;;;;8.80;67.33;100829.78;690522;28;1078;-81
2022/04/26 04:07:17;;;;;;;29.52;16.20;;;;;;;8.82;67.83;100836.81;692836;28;1244;-81
2022/04/26 04:07:38;;;;;;;29.90;16.13;;;;;;;8.85;67.43;100836.06;687635;28;1176;-81
2022/04/26 04:08:01;;;;;;;31.00;16.50;;;;;;;8.83;67.39;100837.72;687888;28;1675;-81
2022/04/26 04:08:21;;;;;;;29.90;16.80;;;;;;;8.86;67.41;100833.50;692304;28;1233;-80
2022/04/26 04:08:42;;;;;;;28.50;16.60;;;;;;;8.86;67.45;100837.81;690375;28;1438;-81
2022/04/26 04:09:03;;;;;;;26.25;16.50;;;;;;;8.83;67.23;100832.53;688249;28;1239;-81
2022/04/26 04:09:24;;;;;;;25.70;16.23;;;;;;;8.85;67.27;100836.94;692286;28;1182;-81
2022/04/26 04:09:44;;;;;;;25.60;16.20;;;;;;;8.81;67.28;100834.16;692542;28;1070;-80
2022/04/26 04:10:06;;;;;;;25.27;15.87;;;;;;;8.80;67.53;100838.50;693197;28;1152;-80
2022/04/26 04:10:26;;;;;;;24.83;16.10;;;;;;;8.84;67.46;100834.28;687670;28;1326;-81
2022/04/26 04:10:47;;;;;;;25.90;16.33;;;;;;;8.81;67.21;100839.38;685230;28;1600;-80
2022/04/26 04:11:07;;;;;;;25.50;16.50;;;;;;;8.86;67.36;100840.44;690384;28;1185;-80
2022/04/26 04:11:28;;;;;;;26.75;16.67;;;;;;;8.83;67.48;100837.72;690312;28;1720;-81
2022/04/26 04:11:49;;;;;;;24.70;16.13;;;;;;;8.86;67.76;100848.22;687274;28;1112;-81
2022/04/26 04:12:10;;;;;;;25.93;16.10;;;;;;;8.80;67.10;100840.19;688243;28;997;-80
2022/04/26 04:12:30;;;;;;;24.90;15.73;;;;;;;8.80;67.28;100829.78;690480;28;1258;-81
2022/04/26 04:12:51;;;;;;;25.40;15.88;;;;;;;8.83;67.81;100832.53;693372;28;980;-81
2022/04/26 04:13:13;;;;;;;25.90;15.77;;;;;;;8.85;67.78;100843.88;687658;28;1412;-80
2022/04/26 04:13:33;;;;;;;25.50;15.85;;;;;;;8.90;67.57;100845.78;687861;28;783;-81
2022/04/26 04:13:54;;;;;;;25.93;15.67;;;;;;;8.87;67.33;100844.81;691622;28;1017;-83
2022/04/26 04:14:14;;;;;;;24.75;15.75;;;;;;;8.87;67.55;100845.69;692704;28;1099;-81
2022/04/26 04:14:54;;;;;;;24.90;15.60;;;;;;;8.93;67.75;100855.44;690442;28;1288;-80
2022/04/26 04:15:15;;;;;;;26.27;16.00;;;;;;;8.82;67.51;100842.03;694178;28;1122;-80
2022/04/26 04:15:36;;;;;;;25.77;15.93;;;;;;;8.94;67.48;100857.22;690423;28;1394;-80
2022/04/26 04:15:57;;;;;;;25.67;15.90;;;;;;;8.90;67.38;100845.78;695874;28;1358;-81
2022/04/26 04:16:17;;;;;;;26.70;15.63;;;;;;;8.94;67.46;100849.41;691509;28;1204;-80
2022/04/26 04:16:38;;;;;;;28.85;15.82;;;;;;;8.86;67.50;100843.91;692330;28;1098;-81
2022/04/26 04:16:59;;;;;;;27.52;15.43;;;;;;;8.83;67.35;100832.53;685269;28;1263;-81
2022/04/26 04:17:20;;;;;;;26.20;15.45;;;;;;;8.92;67.42;100848.47;687555;28;1136;-80
2022/04/26 04:17:40;;;;;;;24.53;15.03;;;;;;;8.83;67.05;100832.53;684902;28;1715;-81
2022/04/26 04:18:02;;;;;;;25.05;14.93;;;;;;;8.87;67.55;100839.59;690390;28;1175;-81
2022/04/26 04:19:43;;;;;;;24.02;15.57;;;;;;;8.86;67.02;100845.63;686864;28;1042;-81
2022/04/26 04:20:04;;;;;;;22.95;15.73;;;;;;;8.86;67.22;100845.63;690043;28;1282;-81
2022/04/26 04:20:25;;;;;;;23.98;15.85;;;;;;;8.83;67.55;100837.72;693277;28;1303;-81
2022/04/26 04:20:45;;;;;;;24.55;15.60;;;;;;;8.80;67.44;100838.50;690202;28;1583;-80
2022/04/26 04:21:06;;;;;;;25.83;15.40;;;;;;;8.83;67.22;100842.94;690500;28;1038;-80
2022/04/26 04:21:26;;;;;;;24.17;14.93;;;;;;;8.84;67.56;100849.91;684483;28;1253;-81
2022/04/26 04:21:49;;;;;;;24.77;15.27;;;;;;;8.80;67.21;100837.59;690358;28;1187;-80
2022/04/26 04:22:09;;;;;;;23.63;14.73;;;;;;;8.82;67.14;100838.53;695736;28;1090;-81
2022/04/26 04:22:30;;;;;;;26.20;15.38;;;;;;;8.85;67.35;100843.88;688526;28;1537;-80
2022/04/26 04:22:53;;;;;;;25.08;15.10;;;;;;;8.80;67.56;100841.09;687682;28;1154;-81
2022/04/26 04:23:14;;;;;;;24.02;15.02;;;;;;;8.89;67.27;100853.53;687646;28;1212;-81
2022/04/26 04:23:38;;;;;;;22.20;14.33;;;;;;;8.87;67.40;100856.09;690449;28;736;-81
2022/04/26 04:23:59;;;;;;;23.05;14.45;;;;;;;8.83;67.83;100846.41;689802;28;1773;-80
2022/04/26 04:24:20;;;;;;;24.70;14.63;;;;;;;8.91;67.26;100857.09;689478;28;1257;-80
2022/04/26 04:24:40;;;;;;;25.77;15.10;;;;;;;8.85;67.30;100849.06;693157;28;1269;-81
2022/04/26 04:25:01;;;;;;;23.88;14.80;;;;;;;8.90;67.29;100855.31;693252;28;1183;-80
2022/04/26 04:25:22;;;;;;;22.50;14.52;;;;;;;8.80;67.70;100838.50;692518;28;1388;-81
2022/04/26 04:25:43;;;;;;;21.92;14.25;;;;;;;8.83;67.43;100854.22;688121;28;1464;-80
2022/04/26 04:26:04;;;;;;;21.00;14.23;;;;;;;8.83;67.60;100853.34;693105;28;1227;-81
2022/04/26 04:26:24;;;;;;;23.85;14.63;;;;;;;8.74;67.66;100839.13;698126;28;1157;-80
2022/04/26 04:26:45;;;;;;;25.63;14.93;;;;;;;8.87;67.70;100865.63;696676;28;1132;-81
2022/04/26 04:27:06;;;;;;;25.67;14.90;;;;;;;8.78;67.68;100845.34;690399;28;1098;-80
2022/04/26 04:27:26;;;;;;;23.73;14.63;;;;;;;8.81;67.21;100845.47;687949;28;926;-81
2022/04/26 04:27:47;;;;;;;24.00;13.83;;;;;;;8.77;67.55;100838.38;687894;28;945;-80
2022/04/26 04:28:08;;;;;;;23.60;13.98;;;;;;;8.74;67.84;100838.25;682931;28;1324;-80
2022/04/26 04:28:31;;;;;;;23.88;14.05;;;;;;;8.77;67.58;100840.97;686929;28;1092;-80
2022/04/26 04:28:52;;;;;;;22.95;14.55;;;;;;;8.85;67.30;100851.69;690432;28;1240;-81
2022/04/26 04:29:13;;;;;;;24.50;14.50;;;;;;;8.87;67.23;100858.72;691174;28;1247;-81
2022/04/26 04:29:34;;;;;;;25.73;14.70;;;;;;;8.77;67.48;100841.88;692586;28;1483;-81
2022/04/26 04:29:55;;;;;;;25.50;14.30;;;;;;;8.76;67.33;100845.31;684824;28;1254;-81
2022/04/26 04:30:16;;;;;;;21.67;13.80;;;;;;;8.79;67.05;100847.13;689580;28;1401;-80
2022/04/26 04:30:37;;;;;;;20.35;13.45;;;;;;;8.72;67.73;100835.59;690402;28;823;-81
2022/04/26 04:30:58;;;;;;;19.48;13.73;;;;;;;8.79;67.56;100851.44;687779;28;1141;-81
2022/04/26 04:31:18;;;;;;;21.20;14.10;;;;;;;8.73;67.50;100842.56;689215;28;1361;-80
2022/04/26 04:31:39;;;;;;;21.53;14.10;;;;;;;8.74;67.44;100849.53;690404;28;802;-80
2022/04/26 04:32:01;;;;;;;22.65;13.80;;;;;;;8.75;67.19;100840.94;693076;28;1500;-81
2022/04/26 04:32:21;;;;;;;23.05;13.75;;;;;;;8.76;67.61;100847.91;692159;28;1178;-80
2022/04/26 04:32:42;;;;;;;23.13;13.73;;;;;;;8.75;67.54;100845.25;695995;28;1154;-81
2022/04/26 04:33:02;;;;;;;21.05;13.73;;;;;;;8.79;67.35;100856.66;695926;28;1038;-80
2022/04/26 04:33:23;;;;;;;21.23;13.70;;;;;;;8.80;67.45;100853.22;693670;28;1126;-80
2022/04/26 04:33:43;;;;;;;20.23;13.60;;;;;;;8.74;67.21;100846.94;692735;28;983;-80
2022/04/26 04:34:04;;;;;;;21.57;14.00;;;;;;;8.83;67.68;100866.34;687708;28;1402;-80
2022/04/26 04:34:25;;;;;;;20.25;13.52;;;;;;;8.72;67.67;100851.22;690996;28;1337;-81
2022/04/26 04:34:46;;;;;;;21.70;13.70;;;;;;;8.76;67.30;100858.31;687991;28;1750;-80
2022/04/26 04:35:07;;;;;;;20.17;13.23;;;;;;;8.76;67.43;100847.00;689176;28;1428;-81
2022/04/26 04:35:27;;;;;;;19.70;12.75;;;;;;;8.79;67.38;100867.06;687754;28;1697;-80
2022/04/26 04:35:48;;;;;;;20.10;12.38;;;;;;;8.81;67.57;100857.59;690345;28;1150;-79
2022/04/26 04:36:09;;;;;;;20.90;12.57;;;;;;;8.74;67.58;100854.75;691054;28;1134;-80
2022/04/26 04:36:31;;;;;;;20.08;12.77;;;;;;;8.84;67.30;100865.53;693103;28;1412;-81
2022/04/26 04:36:51;;;;;;;20.38;13.50;;;;;;;8.82;67.23;100867.16;687700;28;1006;-80
2022/04/26 04:37:12;;;;;;;21.30;13.82;;;;;;;8.79;67.25;100860.16;693767;28;1205;-80
2022/04/26 04:37:33;;;;;;;22.15;14.25;;;;;;;8.76;67.40;100847.00;695923;28;798;-80
2022/04/26 04:37:54;;;;;;;23.55;13.95;;;;;;;8.83;67.24;100864.63;695665;28;1348;-79
2022/04/26 04:38:14;;;;;;;23.77;13.95;;;;;;;8.77;67.32;100846.16;690831;28;1131;-80
2022/04/26 04:38:35;;;;;;;26.10;14.47;;;;;;;8.84;67.47;100860.31;684845;28;1514;-79
2022/04/26 04:38:56;;;;;;;25.08;15.00;;;;;;;8.83;67.50;100868.97;684104;28;1976;-80
2022/04/26 04:39:20;;;;;;;24.83;14.93;;;;;;;8.76;67.36;100842.69;688881;28;1223;-80
2022/04/26 04:39:40;;;;;;;21.90;14.25;;;;;;;8.74;67.33;100854.75;694898;28;1920;-80
2022/04/26 04:40:01;;;;;;;20.75;13.60;;;;;;;8.81;67.62;100860.19;693830;28;1307;-80
2022/04/26 04:40:22;;;;;;;20.85;13.57;;;;;;;8.80;67.03;100863.63;697369;28;1162;-80
2022/04/26 04:40:43;;;;;;;20.80;13.70;;;;;;;8.80;67.67;100861.91;692905;28;1024;-80
2022/04/26 04:41:04;;;;;;;20.40;13.40;;;;;;;8.79;67.56;100861.84;687671;28;1129;-81
2022/04/26 04:41:25;;;;;;;19.55;13.10;;;;;;;8.86;67.66;100867.31;690045;28;1246;-80
2022/04/26 04:41:47;;;;;;;18.65;12.80;;;;;;;8.80;67.24;100863.63;690247;28;1181;-80
2022/04/26 04:42:08;;;;;;;18.27;12.75;;;;;;;8.77;67.54;100862.69;687485;28;1801;-80
2022/04/26 04:42:28;;;;;;;18.90;12.80;;;;;;;8.77;67.17;100865.28;685038;28;1277;-80
2022/04/26 04:42:49;;;;;;;19.52;12.80;;;;;;;8.79;67.52;100864.44;687621;28;1259;-80
2022/04/26 04:43:13;;;;;;;18.50;12.82;;;;;;;8.73;67.12;100852.97;687902;28;1139;-80
2022/04/26 04:43:35;;;;;;;19.85;13.10;;;;;;;8.70;67.47;100862.38;692956;28;1208;-80
2022/04/26 04:43:55;;;;;;;19.88;13.07;;;;;;;8.70;67.26;100860.69;690368;28;1220;-80
2022/04/26 04:44:16;;;;;;;19.27;12.27;;;;;;;8.70;67.23;100863.28;691634;28;1154;-80
2022/04/26 04:44:36;;;;;;;20.13;12.30;;;;;;;8.71;67.64;100864.16;690499;28;1484;-80
2022/04/26 04:44:57;;;;;;;20.83;12.67;;;;;;;8.70;67.17;100863.28;687396;28;1276;-81
2022/04/26 04:45:18;;;;;;;20.85;13.00;;;;;;;8.79;67.47;100878.38;686893;28;2163;-81
2022/04/26 04:45:40;;;;;;;19.17;12.83;;;;;;;8.69;67.52;100865.81;691089;28;1654;-81
2022/04/26 04:46:01;;;;;;;16.38;12.20;;;;;;;8.69;67.09;100860.63;693147;28;1862;-80
2022/04/26 04:46:21;;;;;;;17.55;12.32;;;;;;;8.74;67.19;100875.56;688005;28;1370;-80
2022/04/26 04:46:42;;;;;;;20.25;12.60;;;;;;;8.76;67.12;100873.03;687735;28;1012;-80
2022/04/26 04:47:03;;;;;;;21.30;12.80;;;;;;;8.70;67.25;100871.09;690285;28;1116;-80
2022/04/26 04:47:23;;;;;;;19.48;12.75;;;;;;;8.68;67.29;100864.06;690278;28;1130;-80
2022/04/26 04:47:45;;;;;;;17.75;12.88;;;;;;;8.73;67.23;100876.41;690220;28;1055;-80
2022/04/26 04:48:06;;;;;;;16.75;12.40;;;;;;;8.74;67.33;100882.50;690261;28;1425;-81
2022/04/26 04:48:27;;;;;;;17.20;12.32;;;;;;;8.64;67.45;100870.84;687404;28;1510;-80
2022/04/26 04:48:47;;;;;;;19.88;12.40;;;;;;;8.66;67.46;100866.59;687751;28;912;-80
2022/04/26 04:49:08;;;;;;;20.10;12.50;;;;;;;8.63;67.37;100875.19;685096;28;1156;-80
2022/04/26 04:49:29;;;;;;;21.33;12.10;;;;;;;8.66;67.48;100871.78;687127;28;1644;-80
2022/04/26 04:49:49;;;;;;;22.70;12.50;;;;;;;8.62;67.22;100875.13;690267;28;1192;-80
2022/04/26 04:50:10;;;;;;;23.33;13.00;;;;;;;8.58;67.34;100871.47;690397;28;1139;-80
2022/04/26 04:50:32;;;;;;;23.90;13.05;;;;;;;8.67;67.50;100889.19;692170;28;1074;-80
2022/04/26 04:50:52;;;;;;;19.45;12.20;;;;;;;8.66;67.34;100881.31;691905;28;1263;-80
2022/04/26 04:51:13;;;;;;;19.50;12.03;;;;;;;8.67;67.35;100884.00;685157;28;1734;-80
2022/04/26 04:51:33;;;;;;;20.15;12.88;;;;;;;8.61;67.33;100875.91;690190;28;1088;-80
2022/04/26 04:51:54;;;;;;;20.83;12.87;;;;;;;8.56;67.57;100869.66;690357;28;1229;-80
2022/04/26 04:52:15;;;;;;;17.93;12.27;;;;;;;8.61;67.77;100878.53;684812;28;1771;-81
2022/04/26 04:52:36;;;;;;;15.68;11.18;;;;;;;8.55;67.90;100875.69;687471;28;1734;-80
2022/04/26 04:52:56;;;;;;;15.70;11.40;;;;;;;8.62;67.40;100885.53;691599;28;1886;-81
2022/04/26 04:53:19;;;;;;;16.75;11.60;;;;;;;8.61;67.15;100879.38;691467;28;1153;-81
2022/04/26 04:53:39;;;;;;;18.58;12.15;;;;;;;8.65;67.28;100887.38;689945;28;1710;-80
2022/04/26 04:54:01;;;;;;;18.23;12.02;;;;;;;8.60;67.64;100876.75;695759;28;1421;-81
2022/04/26 04:54:22;;;;;;;17.98;12.27;;;;;;;8.64;67.42;100894.25;693161;28;1459;-81
2022/04/26 04:54:42;;;;;;;18.33;12.15;;;;;;;8.61;67.27;100878.53;692577;28;1340;-80
2022/04/26 04:55:04;;;;;;;18.30;11.88;;;;;;;8.60;67.45;100882.81;684900;28;1268;-80
2022/04/26 04:55:24;;;;;;;16.60;11.40;;;;;;;8.60;67.68;100885.44;692671;28;1225;-81
2022/04/26 04:55:45;;;;;;;16.65;11.98;;;;;;;8.65;67.20;100901.25;690231;28;1726;-81
2022/04/26 04:56:08;;;;;;;16.17;11.90;;;;;;;8.58;67.57;100888.78;690304;28;1136;-81
2022/04/26 04:56:33;;;;;;;17.27;12.02;;;;;;;8.58;67.47;100888.78;687619;28;1224;-81
2022/04/26 04:56:54;;;;;;;21.33;11.85;;;;;;;8.63;67.38;100895.09;690288;28;1565;-81
2022/04/26 04:57:14;;;;;;;23.07;12.47;;;;;;;8.57;67.14;100881.81;691274;28;1206;-81
2022/04/26 04:57:35;;;;;;;20.58;12.05;;;;;;;8.54;67.61;100892.13;692623;28;1214;-79
2022/04/26 04:57:55;;;;;;;18.47;11.43;;;;;;;8.56;67.38;100890.47;690336;28;1139;-80
2022/04/26 04:58:16;;;;;;;18.08;11.30;;;;;;;8.57;67.48;100887.03;691688;28;1249;-81
2022/04/26 04:58:37;;;;;;;18.93;11.50;;;;;;;8.58;67.67;100896.59;695955;28;751;-80
2022/04/26 04:58:57;;;;;;;19.60;11.82;;;;;;;8.61;67.56;100905.41;692895;28;1919;-80
2022/04/26 04:59:18;;;;;;;19.65;11.60;;;;;;;8.56;67.44;100890.47;690227;28;1544;-80
2022/04/26 04:59:39;;;;;;;19.45;11.73;;;;;;;8.56;67.14;100887.84;689212;28;1686;-80
2022/04/26 05:00:00;;;;;;;19.33;11.77;;;;;;;8.55;67.37;100888.69;687644;28;1125;-80
2022/04/26 05:00:22;;;;;;;18.55;12.05;;;;;;;8.53;67.79;100890.34;690058;28;1446;-81
2022/04/26 05:00:42;;;;;;;17.30;12.00;;;;;;;8.53;67.45;100891.22;688713;28;1674;-80
2022/04/26 05:01:03;;;;;;;17.40;12.10;;;;;;;8.55;67.25;100904.28;693926;28;1457;-81
2022/04/26 05:01:23;;;;;;;16.00;11.43;;;;;;;8.52;67.37;100893.78;695045;28;1053;-80
2022/04/26 05:01:44;;;;;;;18.80;11.53;;;;;;;8.52;67.30;100893.78;695975;28;1102;-80
2022/04/26 05:02:06;;;;;;;19.55;12.05;;;;;;;8.47;67.48;100897.09;690324;28;1218;-81
2022/04/26 05:02:27;;;;;;;22.13;12.50;;;;;;;8.47;67.66;100889.28;685191;28;1631;-80
2022/04/26 05:02:47;;;;;;;19.27;12.03;;;;;;;8.47;67.79;100886.69;695121;28;1159;-79
2022/04/26 05:03:08;;;;;;;19.23;12.05;;;;;;;8.49;67.72;100902.34;695553;28;1415;-80
2022/04/26 05:03:28;;;;;;;15.87;11.70;;;;;;;8.47;67.47;100891.88;693408;28;1559;-80
2022/04/26 05:03:51;;;;;;;15.73;11.95;;;;;;;8.48;67.25;100893.66;692998;28;1836;-81
2022/04/26 05:04:12;;;;;;;18.05;11.98;;;;;;;8.44;67.56;100889.16;687487;28;1117;-80
2022/04/26 05:04:32;;;;;;;19.10;12.30;;;;;;;8.43;67.63;100884.81;689987;28;1545;-81
2022/04/26 05:04:53;;;;;;;20.10;12.33;;;;;;;8.43;67.45;100890.00;690388;28;954;-81
2022/04/26 05:05:14;;;;;;;17.17;11.90;;;;;;;8.47;67.20;100897.09;688374;28;1159;-81
2022/04/26 05:05:35;;;;;;;16.65;11.52;;;;;;;8.50;67.37;100907.59;690297;28;1150;-81
2022/04/26 05:05:55;;;;;;;17.60;11.63;;;;;;;8.45;67.77;100897.84;684839;28;1817;-81
2022/04/26 05:06:16;;;;;;;17.73;11.50;;;;;;;8.47;67.77;100894.47;684581;28;1135;-80
2022/04/26 05:06:37;;;;;;;17.63;11.40;;;;;;;8.43;67.64;100892.59;684677;28;1671;-80
2022/04/26 05:06:57;;;;;;;16.13;11.00;;;;;;;8.44;67.33;100894.38;690339;28;1139;-80
2022/04/26 05:07:18;;;;;;;16.98;11.40;;;;;;;8.43;67.33;100890.00;690087;28;1192;-80
2022/04/26 05:07:39;;;;;;;16.43;11.67;;;;;;;8.42;67.54;100888.19;690196;28;1499;-80
2022/04/26 05:08:00;;;;;;;15.65;11.70;;;;;;;8.46;67.54;100895.31;690340;28;1376;-81
2022/04/26 05:08:21;;;;;;;17.10;11.63;;;;;;;8.45;67.56;100898.75;686117;28;1141;-81
2022/04/26 05:08:43;;;;;;;18.47;11.60;;;;;;;8.43;67.53;100903.00;687472;28;1189;-80
2022/04/26 05:09:03;;;;;;;19.00;11.45;;;;;;;8.48;67.43;100906.66;687242;28;1017;-80
2022/04/26 05:09:24;;;;;;;17.15;11.68;;;;;;;8.49;67.05;100907.56;684740;28;1092;-80
2022/04/26 05:09:47;;;;;;;17.42;11.70;;;;;;;8.42;68.05;100896.00;681809;29;1021;-80
2022/04/26 05:10:08;;;;;;;16.80;11.60;;;;;;;8.47;67.27;100901.38;683185;28;1278;-81
2022/04/26 05:10:32;;;;;;;17.50;11.60;;;;;;;8.44;67.76;100902.19;684800;28;1692;-80
2022/04/26 05:10:53;;;;;;;17.42;11.20;;;;;;;8.45;67.58;100895.25;692371;28;1125;-80
2022/04/26 05:11:14;;;;;;;18.87;11.80;;;;;;;8.50;67.33;100907.59;695672;28;1125;-80
2022/04/26 05:11:34;;;;;;;20.30;12.05;;;;;;;8.47;67.70;100897.09;695611;28;1531;-80
2022/04/26 05:11:55;;;;;;;19.70;11.93;;;;;;;8.46;67.27;100903.13;686954;28;1668;-81
2022/04/26 05:12:16;;;;;;;20.23;11.88;;;;;;;8.44;67.36;100899.56;684859;28;1073;-80
2022/04/26 05:12:37;;;;;;;18.17;12.13;;;;;;;8.46;67.66;100902.22;689417;28;1209;-81
2022/04/26 05:12:58;;;;;;;18.00;12.38;;;;;;;8.45;67.33;100898.75;690359;28;1071;-81
2022/04/26 05:13:19;;;;;;;19.45;12.57;;;;;;;8.45;67.84;100898.75;689204;28;1193;-80
2022/04/26 05:13:40;;;;;;;18.45;12.00;;;;;;;8.42;67.25;100903.81;690157;28;1691;-80
2022/04/26 05:14:03;;;;;;;19.15;12.18;;;;;;;8.43;67.73;100904.72;687543;28;1166;-80
2022/04/26 05:14:23;;;;;;;17.52;11.80;;;;;;;8.52;67.94;100919.78;687609;28;1103;-81
2022/04/26 05:14:44;;;;;;;18.60;12.10;;;;;;;8.47;67.77;100903.97;684741;28;1203;-81
2022/04/26 05:15:05;;;;;;;19.00;11.00;;;;;;;8.48;67.99;100911.84;690193;28;1060;-81
2022/04/26 05:15:25;;;;;;;18.95;11.48;;;;;;;8.46;67.35;100905.72;690218;28;1274;-81
2022/04/26 05:15:47;;;;;;;17.40;11.37;;;;;;;8.47;67.68;100907.47;692607;28;1054;-81
2022/04/26 05:16:08;;;;;;;16.58;11.75;;;;;;;8.54;67.57;100920.72;690239;28;1397;-81
2022/04/26 05:16:28;;;;;;;17.40;11.93;;;;;;;8.52;67.47;100915.47;684857;28;1229;-80
2022/04/26 05:16:50;;;;;;;19.75;12.27;;;;;;;8.48;67.75;100904.06;687953;28;1847;-80